Latest Weather Observations for Point Perpendicular

IDN60801

Issued at 7:33 pm EDT Saturday 16 December 2017 (issued every 30 minutes, with the page automatically refreshed every 10 minutes)

About weather observations | Map of weather stations | Latest weather observations for NSW | Other Formats
Station Details ID: 068151 Name: POINT PERPENDICULAR AWS Lat: -35.09 Lon: 150.80 Height: 85.0 m
Data from the previous 72 hours. | See also: Recent months at Point Perpendicular
Date/Time
EDT
Temp
°C
App
Temp
°C
Dew
Point
°C
Rel
Hum
%
Delta-T
°C
Wind Press
QNH
hPa
Press
MSL
hPa
Rain since
9am
mm
Dir  Spd
km/h
Gust
km/h
Spd
kts
Gust
kts
16/07:30pm 21.6 22.9 21.6 100 0.0 SSE 17 20 9 11 1014.5 1014.2 0.0
16/07:00pm 21.8 23.6 21.8 100 0.0 S 15 20 8 11 1014.2 1013.9 0.0
16/06:30pm 22.1 23.7 21.4 96 0.5 SSW 15 24 8 13 1014.0 1013.7 0.0
16/06:00pm 21.8 23.3 20.6 93 0.8 S 13 20 7 11 1013.2 1012.9 0.0
16/05:30pm 24.4 26.4 19.9 76 2.9 SSE 9 15 5 8 1013.0 1012.7 0.0
16/05:00pm 23.6 26.4 20.5 83 2.0 SW 6 15 3 8 1012.9 1012.6 0.0
16/04:30pm 23.3 22.5 20.8 86 1.6 NNE 26 35 14 19 1012.5 1012.2 0.0
16/04:00pm 24.5 22.9 21.6 84 1.9 NNE 32 44 17 24 1011.2 1010.9 0.0
16/03:30pm 25.0 23.4 21.5 81 2.3 NNE 32 43 17 23 1010.9 1010.7 0.0
16/03:00pm 25.4 23.5 20.9 76 3.0 NNE 32 44 17 24 1011.2 1010.9 0.0
16/02:30pm 26.1 24.1 20.7 72 3.6 NNE 32 44 17 24 1011.3 1011.0 0.0
16/02:00pm 27.0 24.4 19.6 64 4.8 NNE 32 44 17 24 1011.5 1011.2 0.0
16/01:30pm 27.6 24.5 18.9 59 5.6 NNE 33 43 18 23 1011.8 1011.5 0.0
16/01:00pm 28.3 25.3 19.0 57 6.0 NNE 33 44 18 24 1012.1 1011.8 0.0
16/12:30pm 28.6 26.5 19.8 59 5.8 NNE 30 39 16 21 1012.3 1012.0 0.0
16/12:00pm 31.0 29.5 19.4 50 7.6 NNE 26 32 14 17 1012.6 1012.3 0.0
16/11:30am 30.6 30.1 19.0 50 7.6 NNE 20 26 11 14 1013.0 1012.7 0.0
16/11:00am 29.8 30.1 19.5 54 6.7 N 17 24 9 13 1013.2 1012.9 0.0
16/10:30am 29.0 29.9 19.3 55 6.3 NNE 13 19 7 10 1013.3 1013.0 0.0
16/10:00am 26.3 27.8 19.7 67 4.3 N 11 15 6 8 1013.6 1013.3 0.0
16/09:30am 24.1 25.8 21.0 83 2.0 N 13 19 7 10 1013.7 1013.4 0.0
16/09:00am 23.9 24.8 20.8 83 2.0 N 17 24 9 13 1013.7 1013.4 0.0
16/08:30am 24.0 25.4 20.3 80 2.4 N 13 19 7 10 1013.5 1013.2 0.0
16/08:00am 23.2 24.6 21.1 88 1.4 NNW 15 22 8 12 1013.3 1013.0 0.0
16/07:30am 22.2 23.1 20.8 92 0.9 NNW 17 24 9 13 1013.0 1012.7 0.0
16/07:00am 21.8 22.3 20.8 94 0.7 N 19 26 10 14 1012.7 1012.4 0.0
16/06:30am 21.5 22.0 20.8 96 0.5 N 19 24 10 13 1012.1 1011.8 0.0
16/06:00am 21.2 21.6 20.9 98 0.2 N 20 24 11 13 1011.7 1011.4 0.0
16/05:30am 21.3 22.1 20.6 96 0.5 N 17 22 9 12 1011.5 1011.2 0.0
16/05:00am 21.2 21.5 20.7 97 0.3 N 20 28 11 15 1011.3 1011.0 0.0
16/04:30am 21.0 21.8 20.7 98 0.2 N 17 22 9 12 1011.0 1010.8 0.0
16/04:00am 21.3 21.7 19.8 91 1.0 N 17 22 9 12 1010.9 1010.7 0.0
16/03:30am 21.8 21.6 19.4 86 1.5 N 19 24 10 13 1011.0 1010.8 0.0
16/03:00am 21.4 21.4 20.2 93 0.8 NNW 20 26 11 14 1010.8 1010.6 0.0
16/02:30am 21.5 21.9 21.0 97 0.3 N 20 32 11 17 1010.9 1010.7 0.0
16/02:00am 21.7 20.9 20.9 95 0.5 N 26 37 14 20 1010.6 1010.4 0.0
16/01:30am 21.9 21.3 20.4 91 1.0 N 24 33 13 18 1010.3 1010.1 0.0
16/01:00am 22.3 22.0 20.4 89 1.2 N 22 32 12 17 1010.3 1010.1 0.0
16/12:30am 22.2 21.2 20.5 90 1.1 N 26 39 14 21 1011.0 1010.8 0.0
16/12:00am 21.9 21.9 20.9 94 0.7 N 22 35 12 19 1011.5 1011.2 0.0
 
Date/Time
EDT
Temp
°C
App
Temp
°C
Dew
Point
°C
Rel
Hum
%
Delta-T
°C
Wind Press
QNH
hPa
Press
MSL
hPa
Rain since
9am
mm
Dir  Spd
km/h
Gust
km/h
Spd
kts
Gust
kts
15/11:30pm 21.7 21.7 20.9 95 0.5 N 22 30 12 16 1011.6 1011.3 0.0
15/11:00pm 21.4 21.5 21.1 98 0.2 N 22 28 12 15 1011.7 1011.4 0.0
15/10:30pm 21.6 21.9 21.6 100 0.0 N 22 30 12 16 1011.6 1011.3 0.0
15/10:00pm 21.6 21.2 21.6 100 0.0 N 26 35 14 19 1011.7 1011.4 0.0
15/09:30pm 21.8 22.2 21.8 100 0.0 NNE 22 33 12 18 1011.8 1011.5 0.0
15/09:00pm 21.4 21.3 21.4 100 0.0 NNE 24 33 13 18 1011.4 1011.1 0.0
15/08:30pm 21.4 21.6 21.4 100 0.0 NNE 22 30 12 16 1011.2 1010.9 0.0
15/08:00pm 21.4 22.0 21.4 100 0.0 NNE 20 28 11 15 1011.3 1011.0 0.0
15/07:30pm 21.8 22.7 21.6 99 0.1 NNE 19 26 10 14 1011.2 1010.9 0.0
15/07:00pm 21.6 22.4 21.4 99 0.1 NNE 19 26 10 14 1010.9 1010.7 0.0
15/06:30pm 21.5 22.1 21.0 97 0.3 NNE 19 28 10 15 1010.9 1010.7 0.0
15/06:00pm 22.1 23.1 21.1 94 0.7 NNE 17 24 9 13 1010.8 1010.6 0.0
15/05:30pm 22.3 24.4 20.9 92 0.9 NNE 11 20 6 11 1011.2 1010.9 0.0
15/05:00pm 22.3 23.9 20.8 91 1.0 NNE 13 17 7 9 1010.9 1010.7 0.0
15/04:30pm 22.6 24.9 21.4 93 0.8 NNE 11 17 6 9 1011.6 1011.3 0.0
15/04:00pm 21.2 23.1 19.8 92 0.9 NE 9 15 5 8 1011.6 1011.3 0.0
15/03:30pm 21.3 23.8 19.8 91 1.0 ESE 6 7 3 4 1012.0 1011.7 0.0
15/03:00pm 22.0 24.7 19.4 85 1.7 ESE 4 7 2 4 1012.3 1012.0 0.0
15/02:30pm 21.4 23.6 19.3 88 1.3 SE 6 9 3 5 1012.8 1012.5 0.0
15/02:00pm 20.8 23.6 18.9 89 1.2 NE 2 6 1 3 1013.3 1013.0 0.0
15/01:30pm 20.4 23.1 18.7 90 1.1 E 2 6 1 3 1013.7 1013.4 0.0
15/01:00pm 20.4 22.0 18.2 87 1.4 NE 7 15 4 8 1013.7 1013.4 0.0
15/12:30pm 20.6 22.4 18.4 87 1.4 E 6 13 3 7 1014.1 1013.8 0.0
15/12:00pm 21.7 24.0 19.8 89 1.2 ENE 7 13 4 7 1014.1 1013.8 0.0
15/11:30am 20.1 22.5 18.9 93 0.8 SSE 4 7 2 4 1014.1 1013.8 0.0
15/11:00am 19.8 21.3 19.0 95 0.5 S 9 15 5 8 1014.6 1014.3 0.0
15/10:30am 19.4 20.1 18.9 97 0.3 SSW 13 19 7 10 1015.3 1015.0 0.0
15/10:00am 19.4 20.0 18.7 96 0.4 SW 13 22 7 12 1015.5 1015.2 0.0
15/09:30am 19.3 19.2 18.8 97 0.3 SSW 17 22 9 12 1014.9 1014.6 0.0
15/09:00am 19.1 19.2 19.1 100 0.0 SW 17 26 9 14 1014.8 1014.5 0.0
15/08:30am 19.0 19.0 19.0 100 0.0 SSW 17 22 9 12 1014.2 1013.9 0.0
15/08:00am 19.1 19.2 19.1 100 0.0 SSW 17 26 9 14 1014.5 1014.2 0.0
15/07:30am 19.2 19.7 19.2 100 0.0 SW 15 22 8 12 1014.6 1014.3 0.0
15/07:00am 19.3 19.8 19.3 100 0.0 SSW 15 22 8 12 1013.7 1013.4 0.0
15/06:30am 19.1 19.5 19.1 100 0.0 SSW 15 20 8 11 1013.7 1013.4 0.0
15/06:00am 19.2 19.3 19.2 100 0.0 SSW 17 20 9 11 1013.7 1013.4 0.0
15/05:30am 19.3 20.6 19.3 100 0.0 SSW 11 17 6 9 1013.1 1012.8 0.0
15/05:00am 19.2 19.2 19.0 99 0.1 SSW 17 22 9 12 1012.6 1012.3 0.0
15/04:30am 19.4 18.5 19.1 98 0.2 SSW 22 35 12 19 1011.7 1011.4 0.0
15/04:00am 19.4 18.1 19.1 98 0.2 SSW 24 35 13 19 1011.6 1011.3 0.0
15/03:30am 19.5 17.9 19.2 98 0.2 SSW 26 39 14 21 1010.8 1010.6 0.0
15/03:00am 19.4 17.4 19.2 99 0.1 SSW 28 41 15 22 1011.4 1011.1 0.0
15/02:30am 19.3 17.7 19.3 100 0.0 SSW 26 37 14 20 1011.3 1011.0 0.0
15/02:00am 19.4 17.5 19.4 100 0.0 SSW 28 41 15 22 1011.5 1011.2 0.0
15/01:30am 19.5 16.7 19.5 100 0.0 SSW 33 44 18 24 1011.2 1010.9 0.0
15/01:00am 19.8 17.7 19.8 100 0.0 SSW 30 44 16 24 1011.3 1011.0 0.0
15/12:30am 20.0 18.0 20.0 100 0.0 SW 30 50 16 27 1011.2 1010.9 0.0
15/12:00am 20.3 17.9 20.3 100 0.0 SW 33 52 18 28 1010.2 1010.0 0.0
 
Date/Time
EDT
Temp
°C
App
Temp
°C
Dew
Point
°C
Rel
Hum
%
Delta-T
°C
Wind Press
QNH
hPa
Press
MSL
hPa
Rain since
9am
mm
Dir  Spd
km/h
Gust
km/h
Spd
kts
Gust
kts
14/11:54pm 20.3 18.1 20.3 100 0.0 SW 32 52 17 28 1009.9 1009.7 0.0
14/11:52pm 20.3 18.8 20.3 100 0.0 SW 28 48 15 26 1010.0 1009.8 0.0
14/11:30pm 21.3 22.1 20.6 96 0.5 WSW 17 24 9 13 1011.4 1011.1 0.0
14/11:00pm 21.7 22.2 19.3 86 1.5 SW 15 28 8 15 1010.3 1010.1 0.0
14/10:30pm 23.8 23.1 18.7 73 3.2 N 20 30 11 16 1009.2 1009.0 0.0
14/10:00pm 24.3 23.4 18.2 68 3.9 NE 20 30 11 16 1008.5 1008.3 0.0
14/09:30pm 24.4 23.5 18.1 68 4.0 NE 20 28 11 15 1008.2 1008.0 0.0
14/09:00pm 24.6 23.8 18.1 67 4.1 NE 19 32 10 17 1008.3 1008.1 0.0
14/08:30pm 26.5 26.3 17.6 58 5.6 NE 15 20 8 11 1007.8 1007.5 0.0
14/08:00pm 25.2 25.3 18.4 66 4.3 NNE 15 22 8 12 1007.6 1007.3 0.0
14/07:30pm 22.4 22.8 19.9 86 1.6 NE 17 30 9 16 1006.8 1006.5 0.0
14/07:00pm 23.1 23.1 20.1 83 1.9 NNE 20 28 11 15 1005.8 1005.5 0.0
14/06:30pm 23.2 21.5 19.8 81 2.2 NNE 28 37 15 20 1004.7 1004.4 0.0
14/06:00pm 25.0 23.0 18.4 66 4.2 NNE 26 37 14 20 1004.5 1004.2 0.0
14/05:30pm 24.6 22.6 19.2 72 3.5 NNE 28 37 15 20 1004.5 1004.2 0.0
14/05:00pm 25.2 23.3 18.6 67 4.2 NNE 26 41 14 22 1004.1 1003.8 0.0
14/04:30pm 26.3 25.1 19.2 65 4.6 NNE 24 35 13 19 1004.4 1004.1 0.0
14/04:00pm 28.5 27.0 19.4 57 5.9 NNE 26 37 14 20 1004.3 1004.0 0.0
14/03:30pm 29.4 28.7 20.3 58 6.0 NNE 24 33 13 18 1004.4 1004.1 0.0
14/03:00pm 28.3 26.8 20.3 62 5.3 NNE 28 39 15 21 1004.5 1004.2 0.0
14/02:30pm 26.1 24.7 19.7 68 4.2 NNE 26 37 14 20 1004.6 1004.3 0.0
14/02:00pm 26.9 25.6 19.8 65 4.6 NNE 26 35 14 19 1005.0 1004.7 0.0
14/01:30pm 25.7 24.8 19.8 70 3.8 NNE 24 33 13 18 1005.2 1004.9 0.0
14/01:00pm 28.9 28.3 20.4 60 5.6 NNE 24 30 13 16 1005.4 1005.1 0.0
14/12:30pm 30.0 30.5 21.9 62 5.5 NNE 22 32 12 17 1005.5 1005.2 0.0
14/12:00pm 28.8 29.0 20.5 61 5.5 NNE 20 26 11 14 1006.0 1005.7 0.0
14/11:30am 28.9 29.4 21.1 62 5.2 NNE 20 28 11 15 1006.4 1006.1 0.0
14/11:00am 27.7 27.0 20.3 64 4.9 NNE 24 32 13 17 1006.7 1006.4 0.0
14/10:30am 28.0 27.4 19.8 61 5.4 NNE 22 28 12 15 1006.6 1006.3 0.0
14/10:00am 28.2 27.7 20.0 61 5.4 NNE 22 32 12 17 1006.6 1006.3 0.0
14/09:30am 26.5 26.1 20.1 68 4.2 NNE 22 30 12 16 1006.9 1006.6 0.0
14/09:00am 26.2 25.6 19.8 68 4.2 N 22 32 12 17 1007.0 1006.7 0.0
14/08:30am 25.6 26.2 20.2 72 3.5 NNE 17 26 9 14 1007.2 1006.9 0.0
14/08:00am 24.5 25.0 20.0 76 2.9 NNE 17 20 9 11 1007.3 1007.0 0.0
14/07:30am 22.4 23.4 20.3 88 1.4 NNE 15 22 8 12 1007.3 1007.0 0.0
14/07:00am 21.2 21.5 20.4 95 0.5 NNE 19 24 10 13 1007.2 1006.9 0.0
14/06:30am 20.2 20.2 20.2 100 0.0 N 20 30 11 16 1007.0 1006.7 0.0
14/06:00am 20.0 19.5 20.0 100 0.0 N 22 30 12 16 1006.8 1006.5 0.0
14/05:30am 20.0 19.2 20.0 100 0.0 NNE 24 33 13 18 1006.5 1006.2 0.0
14/05:00am 20.1 19.3 20.1 100 0.0 N 24 35 13 19 1006.4 1006.1 0.0
14/04:30am 20.0 18.8 20.0 100 0.0 N 26 35 14 19 1006.3 1006.0 0.0
14/04:00am 20.2 18.7 20.2 100 0.0 N 28 37 15 20 1006.4 1006.1 0.0
14/03:30am 20.3 18.5 20.3 100 0.0 NNE 30 41 16 22 1006.6 1006.3 0.0
14/03:00am 20.3 18.8 20.3 100 0.0 N 28 39 15 21 1007.3 1007.0 0.0
14/02:30am 20.5 19.5 20.5 100 0.0 N 26 33 14 18 1007.3 1007.0 0.0
14/02:00am 20.5 18.8 20.5 100 0.0 NNE 30 41 16 22 1007.8 1007.5 0.0
14/01:30am 20.5 18.8 20.5 100 0.0 NNE 30 39 16 21 1007.9 1007.6 0.0
14/01:00am 20.6 18.9 20.6 100 0.0 NNE 30 41 16 22 1008.1 1007.8 0.0
14/12:30am 20.7 18.6 20.5 99 0.1 NNE 32 44 17 24 1008.5 1008.3 0.0
14/12:00am 20.9 18.8 20.6 98 0.2 NNE 32 46 17 25 1008.6 1008.4 0.0
 
Date/Time
EDT
Temp
°C
App
Temp
°C
Dew
Point
°C
Rel
Hum
%
Delta-T
°C
Wind Press
QNH
hPa
Press
MSL
hPa
Rain since
9am
mm
Dir  Spd
km/h
Gust
km/h
Spd
kts
Gust
kts
13/11:30pm 21.0 18.9 20.5 97 0.3 NNE 32 43 17 23 1008.9 1008.7 0.0
13/11:00pm 21.2 19.0 20.4 95 0.5 NNE 32 43 17 23 1009.0 1008.8 0.0
13/10:30pm 21.2 18.7 20.2 94 0.6 NNE 33 46 18 25 1009.0 1008.8 0.0
13/10:00pm 21.4 18.7 19.7 90 1.1 NNE 33 46 18 25 1009.2 1009.0 0.0
13/09:30pm 21.5 18.4 19.6 89 1.2 NNE 35 48 19 26 1009.2 1009.0 0.0
13/09:05pm 21.7 18.6 19.6 88 1.3 NNE 35 54 19 29 1009.0 1008.8 0.0
13/09:00pm 21.6 18.5 19.7 89 1.2 NNE 35 48 19 26 1009.0 1008.8 0.0
13/08:30pm 21.4 19.1 20.2 93 0.8 NNE 32 44 17 24 1009.0 1008.8 0.0
13/08:00pm 21.4 19.6 20.4 94 0.6 NNE 30 43 16 23 1009.0 1008.8 0.0

Other Formats:

Comma delimited format used in spreadsheet applications
http://www.bom.gov.au/fwo/IDN60801/IDN60801.95940.axf

JavaScript Object Notation format (JSON) in row-major order
http://www.bom.gov.au/fwo/IDN60801/IDN60801.95940.json